Time;durP1;ratioP1;P1;durP2;ratioP2;P2;SDS_P1;SDS_P2;PMS_P1;PMS_P2;Temp;Humidity;BMP_temperature;BMP_pressure;BME280_temperature;BME280_humidity;BME280_pressure;Samples;Min_cycle;Max_cycle;Signal;HPM_P1;HPM_P2
2023/01/30 00:00:06;;;;;;;21.95;12.00;;;;;;;;;;5037688;28;20055;-86
2023/01/30 00:02:33;;;;;;;16.90;11.60;;;;;;;;;;5055474;28;20256;-85
2023/01/30 00:05:00;;;;;;;15.30;10.88;;;;;;;;;;5037758;28;20060;-86
2023/01/30 00:07:28;;;;;;;18.02;11.40;;;;;;;;;;5038212;28;20041;-86
2023/01/30 00:09:55;;;;;;;16.10;11.40;;;;;;;;;;5055457;28;20087;-85
2023/01/30 00:12:23;;;;;;;17.60;11.15;;;;;;;;;;5055669;28;20131;-86
2023/01/30 00:14:50;;;;;;;17.95;11.57;;;;;;;;;;5037993;28;20136;-87
2023/01/30 00:17:17;;;;;;;16.80;11.38;;;;;;;;;;5037876;28;20044;-86
2023/01/30 00:19:44;;;;;;;17.25;10.57;;;;;;;;;;5037778;28;20056;-86
2023/01/30 00:22:11;;;;;;;19.33;11.50;;;;;;;;;;5037880;28;20084;-86
2023/01/30 00:24:38;;;;;;;17.05;11.95;;;;;;;;;;5055424;28;20059;-86
2023/01/30 00:27:06;;;;;;;16.13;11.45;;;;;;;;;;5037375;28;20056;-86
2023/01/30 00:29:33;;;;;;;17.35;11.50;;;;;;;;;;5037739;28;20053;-85
2023/01/30 00:32:00;;;;;;;18.60;12.45;;;;;;;;;;5036422;28;20072;-86
2023/01/30 00:34:27;;;;;;;19.17;12.50;;;;;;;;;;5036971;28;20499;-85
2023/01/30 00:36:55;;;;;;;15.73;11.70;;;;;;;;;;5037292;28;20468;-86
2023/01/30 00:39:34;;;;;;;17.92;11.52;;;;;;;;;;5054836;28;20048;-86
2023/01/30 00:47:33;;;;;;;19.02;11.93;;;;;;;;;;5057667;28;20417;-86
2023/01/30 00:50:00;;;;;;;21.30;11.27;;;;;;;;;;5054394;28;20080;-86
2023/01/30 00:52:27;;;;;;;18.20;12.27;;;;;;;;;;5054238;28;20041;-85
2023/01/30 00:54:55;;;;;;;21.23;12.45;;;;;;;;;;5054273;28;20057;-85
2023/01/30 00:57:22;;;;;;;21.88;13.43;;;;;;;;;;5054356;28;20062;-86
2023/01/30 00:59:49;;;;;;;23.95;12.93;;;;;;;;;;5035791;28;20060;-85
2023/01/30 01:02:16;;;;;;;24.10;13.38;;;;;;;;;;5053908;28;20132;-87
2023/01/30 01:04:43;;;;;;;26.73;14.77;;;;;;;;;;5036709;28;20049;-87
2023/01/30 01:07:14;;;;;;;18.63;12.82;;;;;;;;;;5054297;28;20466;-88
2023/01/30 01:09:41;;;;;;;25.00;13.80;;;;;;;;;;5055047;28;20052;-87
2023/01/30 01:12:08;;;;;;;21.90;13.13;;;;;;;;;;5037395;28;20057;-87
2023/01/30 01:14:36;;;;;;;21.05;13.48;;;;;;;;;;5037039;28;20056;-87
2023/01/30 01:17:03;;;;;;;23.63;13.27;;;;;;;;;;5036435;28;20051;-88
2023/01/30 01:19:30;;;;;;;20.48;13.30;;;;;;;;;;5036461;28;20061;-88
2023/01/30 01:21:57;;;;;;;21.33;13.48;;;;;;;;;;5036412;28;20128;-87
2023/01/30 01:24:25;;;;;;;20.70;13.00;;;;;;;;;;5036541;28;20051;-87
2023/01/30 01:26:52;;;;;;;19.95;12.77;;;;;;;;;;5036229;28;20041;-87
2023/01/30 01:29:19;;;;;;;28.05;13.40;;;;;;;;;;5036277;28;20485;-87
2023/01/30 01:31:46;;;;;;;25.80;13.55;;;;;;;;;;5036252;28;20548;-87
2023/01/30 01:34:13;;;;;;;25.52;13.55;;;;;;;;;;5036030;28;20147;-87
2023/01/30 01:36:41;;;;;;;16.80;11.68;;;;;;;;;;5053747;28;20077;-84
2023/01/30 01:39:20;;;;;;;23.55;13.05;;;;;;;;;;5053959;28;20045;-88
2023/01/30 01:41:47;;;;;;;18.50;12.20;;;;;;;;;;5035914;28;20084;-87
2023/01/30 01:44:15;;;;;;;17.67;11.88;;;;;;;;;;5053074;28;20079;-84
2023/01/30 01:46:43;;;;;;;16.85;11.32;;;;;;;;;;5053393;28;20516;-84
2023/01/30 01:49:16;;;;;;;30.23;13.02;;;;;;;;;;5052860;28;20049;-87
2023/01/30 01:51:43;;;;;;;;;;;;;;;;;;5036274;28;20053;-87
2023/01/30 01:54:13;;;;;;;18.77;11.98;;;;;;;;;;5035647;28;19921;-87
2023/01/30 01:56:43;;;;;;;20.58;13.05;;;;;;;;;;5035897;28;20048;-87
2023/01/30 01:59:13;;;;;;;24.20;14.30;;;;;;;;;;5036820;28;20136;-89
2023/01/30 02:01:40;;;;;;;27.70;13.55;;;;;;;;;;5039377;28;20045;-87
2023/01/30 02:04:09;;;;;;;27.20;14.73;;;;;;;;;;5036306;28;20409;-87
2023/01/30 02:06:38;;;;;;;39.60;13.13;;;;;;;;;;5035734;28;20045;-85
2023/01/30 02:09:07;;;;;;;23.00;13.90;;;;;;;;;;5053248;28;20055;-85
2023/01/30 02:11:41;;;;;;;32.50;14.93;;;;;;;;;;5035888;28;20052;-87
2023/01/30 02:14:10;;;;;;;21.48;12.77;;;;;;;;;;5035744;28;20398;-86
2023/01/30 02:16:37;;;;;;;24.08;14.00;;;;;;;;;;5035662;28;20492;-87
2023/01/30 02:19:14;;;;;;;24.08;13.85;;;;;;;;;;5053128;28;20055;-87
2023/01/30 02:21:57;;;;;;;30.10;13.77;;;;;;;;;;5035837;28;20053;-87
2023/01/30 02:24:25;;;;;;;;;;;;;;;;;;5053587;28;20052;-87
2023/01/30 02:27:07;;;;;;;18.23;12.30;;;;;;;;;;5053066;28;19921;-87
2023/01/30 02:29:42;;;;;;;19.65;12.43;;;;;;;;;;5035996;28;20382;-87
2023/01/30 02:32:14;;;;;;;21.75;13.05;;;;;;;;;;5053136;28;20124;-88
2023/01/30 02:34:42;;;;;;;23.70;14.00;;;;;;;;;;5035435;28;20451;-87
2023/01/30 02:37:31;;;;;;;18.15;12.93;;;;;;;;;;5053082;28;20049;-87
2023/01/30 02:40:17;;;;;;;17.65;12.13;;;;;;;;;;5052890;28;20509;-87
2023/01/30 02:42:44;;;;;;;19.42;12.18;;;;;;;;;;5052891;28;20052;-87
2023/01/30 02:45:11;;;;;;;16.55;12.43;;;;;;;;;;5035466;28;20091;-88
2023/01/30 02:47:43;;;;;;;16.13;11.13;;;;;;;;;;5035573;28;20045;-87
2023/01/30 02:50:14;;;;;;;19.15;11.25;;;;;;;;;;5052604;28;20056;-87
2023/01/30 02:52:42;;;;;;;15.13;9.85;;;;;;;;;;5035222;28;20136;-88
2023/01/30 02:55:17;;;;;;;14.23;10.50;;;;;;;;;;5032216;28;20498;-87
2023/01/30 02:57:45;;;;;;;14.05;9.82;;;;;;;;;;5037089;28;20053;-86
2023/01/30 03:00:15;;;;;;;15.02;10.25;;;;;;;;;;5035690;28;20053;-87
2023/01/30 03:03:06;;;;;;;14.77;10.25;;;;;;;;;;5035675;28;20041;-87
2023/01/30 03:05:51;;;;;;;11.75;8.57;;;;;;;;;;5035603;28;20107;-86
2023/01/30 03:08:34;;;;;;;11.40;8.70;;;;;;;;;;5036480;28;20053;-86
2023/01/30 03:11:06;;;;;;;12.55;8.82;;;;;;;;;;5035622;28;20054;-87
2023/01/30 03:13:34;;;;;;;14.48;8.95;;;;;;;;;;5037668;28;20136;-86
2023/01/30 03:16:08;;;;;;;13.98;8.52;;;;;;;;;;5037814;28;20421;-88
2023/01/30 03:18:35;;;;;;;12.45;8.95;;;;;;;;;;5035748;28;20057;-88
2023/01/30 03:21:05;;;;;;;12.18;8.93;;;;;;;;;;5036421;28;20049;-84
2023/01/30 03:23:33;;;;;;;12.82;8.95;;;;;;;;;;5036356;28;20132;-87
2023/01/30 03:26:02;;;;;;;13.45;8.85;;;;;;;;;;5035831;28;20495;-85
2023/01/30 03:28:30;;;;;;;14.27;9.70;;;;;;;;;;5036047;28;20056;-87
2023/01/30 03:30:57;;;;;;;24.98;10.82;;;;;;;;;;5035802;28;20142;-86
2023/01/30 03:33:24;;;;;;;17.83;10.05;;;;;;;;;;5035108;28;20056;-87
2023/01/30 03:35:52;;;;;;;13.35;9.68;;;;;;;;;;5034895;28;20137;-84
2023/01/30 03:38:19;;;;;;;16.98;10.20;;;;;;;;;;5034863;28;20045;-87
2023/01/30 03:40:46;;;;;;;27.90;11.50;;;;;;;;;;5036051;28;20692;-87
2023/01/30 03:43:13;;;;;;;13.80;9.70;;;;;;;;;;5034870;28;20081;-88
2023/01/30 03:45:41;;;;;;;13.02;9.40;;;;;;;;;;5034943;28;20409;-88
2023/01/30 03:48:08;;;;;;;11.93;9.20;;;;;;;;;;5041707;28;20049;-87
2023/01/30 03:50:35;;;;;;;12.52;8.77;;;;;;;;;;5036061;28;20045;-87
2023/01/30 03:53:02;;;;;;;11.40;8.73;;;;;;;;;;5034737;28;20049;-85
2023/01/30 03:55:29;;;;;;;11.80;8.10;;;;;;;;;;5034758;28;20049;-87
2023/01/30 03:57:57;;;;;;;10.68;7.43;;;;;;;;;;5035918;28;20053;-85
2023/01/30 04:00:24;;;;;;;10.10;8.05;;;;;;;;;;5035757;28;20063;-88
2023/01/30 04:02:53;;;;;;;10.60;8.23;;;;;;;;;;5034704;28;20042;-87
2023/01/30 04:05:20;;;;;;;11.00;7.78;;;;;;;;;;5034665;28;20056;-88
2023/01/30 04:07:48;;;;;;;11.75;8.13;;;;;;;;;;5034042;28;20486;-87
2023/01/30 04:10:17;;;;;;;10.98;8.40;;;;;;;;;;5035835;28;20057;-87
2023/01/30 04:12:45;;;;;;;11.55;8.10;;;;;;;;;;5035683;28;20051;-86
2023/01/30 04:15:13;;;;;;;12.95;8.82;;;;;;;;;;5034916;28;20046;-87
2023/01/30 04:17:40;;;;;;;12.65;8.98;;;;;;;;;;5035251;28;20450;-86
2023/01/30 04:20:07;;;;;;;12.82;9.02;;;;;;;;;;5034446;28;20045;-87
2023/01/30 04:22:35;;;;;;;11.38;8.95;;;;;;;;;;5036048;28;20048;-86
2023/01/30 04:25:02;;;;;;;11.55;9.00;;;;;;;;;;5038953;28;20056;-87
2023/01/30 04:27:29;;;;;;;14.65;9.82;;;;;;;;;;5046514;28;20486;-89
2023/01/30 04:29:56;;;;;;;12.82;9.20;;;;;;;;;;5035263;28;20413;-87
2023/01/30 04:32:25;;;;;;;11.77;8.80;;;;;;;;;;5034938;28;20053;-87
2023/01/30 04:34:52;;;;;;;12.27;9.23;;;;;;;;;;5035256;28;20312;-89
2023/01/30 04:37:19;;;;;;;12.95;8.75;;;;;;;;;;5033697;28;20505;-88
2023/01/30 04:39:46;;;;;;;12.35;8.98;;;;;;;;;;5035050;28;20049;-87
2023/01/30 04:42:13;;;;;;;15.15;8.70;;;;;;;;;;5035503;28;20045;-87
2023/01/30 04:44:42;;;;;;;11.65;8.20;;;;;;;;;;5034918;28;20053;-87
2023/01/30 04:47:09;;;;;;;14.57;9.40;;;;;;;;;;5033750;28;20092;-88
2023/01/30 04:49:37;;;;;;;9.88;7.88;;;;;;;;;;5033770;28;20104;-88
2023/01/30 04:52:04;;;;;;;11.75;8.50;;;;;;;;;;5033808;28;20053;-88
2023/01/30 04:54:32;;;;;;;11.10;8.35;;;;;;;;;;5033639;28;20508;-89
2023/01/30 04:56:59;;;;;;;11.55;9.02;;;;;;;;;;5033743;28;20045;-88
2023/01/30 04:59:26;;;;;;;11.40;8.55;;;;;;;;;;5033616;28;20052;-88
2023/01/30 05:01:54;;;;;;;11.20;8.55;;;;;;;;;;5034098;28;20049;-90
2023/01/30 05:04:21;;;;;;;11.38;8.73;;;;;;;;;;5033819;28;20049;-88
2023/01/30 05:06:48;;;;;;;10.52;8.10;;;;;;;;;;5034619;28;20501;-87
2023/01/30 05:09:16;;;;;;;10.27;8.13;;;;;;;;;;5033648;28;20050;-89
2023/01/30 05:11:43;;;;;;;11.05;8.50;;;;;;;;;;5034031;28;20049;-88
2023/01/30 05:14:10;;;;;;;11.40;8.02;;;;;;;;;;5033176;28;20111;-87
2023/01/30 05:16:37;;;;;;;9.20;7.30;;;;;;;;;;5034471;28;20046;-88
2023/01/30 05:19:04;;;;;;;9.32;7.50;;;;;;;;;;5032996;28;20482;-88
2023/01/30 05:21:32;;;;;;;9.27;6.57;;;;;;;;;;5033823;28;20050;-86
2023/01/30 05:23:59;;;;;;;6.78;5.88;;;;;;;;;;5033355;28;20045;-87
2023/01/30 05:26:26;;;;;;;8.73;5.80;;;;;;;;;;5033186;28;20508;-86
2023/01/30 05:28:54;;;;;;;7.43;5.93;;;;;;;;;;5033137;28;20417;-88
2023/01/30 05:31:22;;;;;;;6.55;5.53;;;;;;;;;;5034390;28;20157;-87
2023/01/30 05:33:51;;;;;;;6.45;5.75;;;;;;;;;;5033397;28;20083;-87
2023/01/30 05:36:19;;;;;;;6.70;4.90;;;;;;;;;;5032974;28;20053;-86
2023/01/30 05:38:46;;;;;;;5.05;4.55;;;;;;;;;;5036440;28;20053;-88
2023/01/30 05:41:14;;;;;;;5.10;4.60;;;;;;;;;;5049294;28;20104;-88
2023/01/30 05:43:41;;;;;;;6.50;4.85;;;;;;;;;;5033990;28;20057;-87
2023/01/30 05:46:10;;;;;;;6.85;5.10;;;;;;;;;;5033544;28;20083;-87
2023/01/30 05:48:37;;;;;;;25.13;5.57;;;;;;;;;;5033656;28;20052;-88
2023/01/30 05:51:04;;;;;;;4.93;4.43;;;;;;;;;;5031297;28;20053;-87
2023/01/30 05:53:36;;;;;;;7.03;4.90;;;;;;;;;;5035089;28;20079;-89
2023/01/30 05:56:04;;;;;;;9.02;5.07;;;;;;;;;;5053474;28;20052;-89
2023/01/30 05:58:32;;;;;;;5.95;5.20;;;;;;;;;;5053757;28;20049;-88
2023/01/30 06:01:01;;;;;;;6.60;4.90;;;;;;;;;;5053394;28;20053;-88
2023/01/30 06:03:28;;;;;;;10.27;5.32;;;;;;;;;;5035894;28;20084;-87
2023/01/30 06:05:55;;;;;;;14.13;6.15;;;;;;;;;;5036084;28;20049;-86
2023/01/30 06:08:23;;;;;;;7.35;5.75;;;;;;;;;;5035777;28;20394;-87
2023/01/30 06:10:50;;;;;;;8.60;6.20;;;;;;;;;;5035701;28;20049;-86
2023/01/30 06:13:17;;;;;;;8.82;6.32;;;;;;;;;;5035857;28;20069;-88
2023/01/30 06:15:45;;;;;;;7.60;6.43;;;;;;;;;;5035837;28;20049;-89
2023/01/30 06:18:12;;;;;;;6.95;5.93;;;;;;;;;;5036046;28;20533;-88
2023/01/30 06:20:39;;;;;;;7.63;5.90;;;;;;;;;;5035997;28;20051;-87
2023/01/30 06:23:06;;;;;;;5.50;4.95;;;;;;;;;;5052442;28;20060;-87
2023/01/30 06:25:34;;;;;;;7.07;5.95;;;;;;;;;;5053101;28;20052;-86
2023/01/30 06:28:01;;;;;;;8.13;6.40;;;;;;;;;;5035738;28;20131;-87
2023/01/30 06:30:28;;;;;;;5.97;5.38;;;;;;;;;;5036838;28;20063;-88
2023/01/30 06:32:55;;;;;;;6.78;5.75;;;;;;;;;;5039747;28;20045;-85
2023/01/30 06:35:23;;;;;;;5.68;5.10;;;;;;;;;;5039596;28;20085;-87
2023/01/30 06:37:50;;;;;;;5.55;4.93;;;;;;;;;;5039765;28;20053;-86
2023/01/30 06:40:17;;;;;;;5.07;4.57;;;;;;;;;;5039952;28;20074;-88
2023/01/30 06:42:48;;;;;;;4.90;4.40;;;;;;;;;;5039819;28;20045;-88
2023/01/30 06:45:16;;;;;;;4.70;4.30;;;;;;;;;;5040230;28;20424;-87
2023/01/30 06:47:48;;;;;;;5.22;4.07;;;;;;;;;;5039778;28;20049;-88
2023/01/30 06:50:16;;;;;;;4.00;3.55;;;;;;;;;;5039888;28;20049;-87
2023/01/30 06:52:44;;;;;;;4.30;3.78;;;;;;;;;;5046822;28;20045;-87
2023/01/30 06:55:12;;;;;;;3.55;3.20;;;;;;;;;;5052459;28;20144;-87
2023/01/30 06:57:40;;;;;;;3.80;3.50;;;;;;;;;;5039963;28;20049;-87
2023/01/30 07:00:08;;;;;;;5.60;3.75;;;;;;;;;;5031463;28;20100;-90
2023/01/30 07:02:36;;;;;;;3.78;3.47;;;;;;;;;;5027071;28;20045;-87
2023/01/30 07:05:05;;;;;;;3.20;2.88;;;;;;;;;;5018827;28;20053;-86
2023/01/30 07:07:33;;;;;;;4.03;3.30;;;;;;;;;;5019722;28;20171;-88
2023/01/30 07:10:00;;;;;;;7.28;3.00;;;;;;;;;;5019639;28;20045;-86
2023/01/30 07:12:35;;;;;;;3.75;3.05;;;;;;;;;;5020549;28;20092;-86
2023/01/30 07:15:03;;;;;;;3.28;2.97;;;;;;;;;;5019426;28;20095;-86
2023/01/30 07:17:30;;;;;;;2.95;2.70;;;;;;;;;;5036626;28;20085;-87
2023/01/30 07:19:58;;;;;;;2.90;2.70;;;;;;;;;;5019307;28;20050;-87
2023/01/30 07:22:26;;;;;;;10.43;2.72;;;;;;;;;;5036517;28;20048;-88
2023/01/30 07:24:54;;;;;;;6.13;2.10;;;;;;;;;;5036335;28;20053;-86
2023/01/30 07:27:21;;;;;;;2.33;2.13;;;;;;;;;;5019064;28;20042;-86
2023/01/30 07:29:48;;;;;;;2.20;2.00;;;;;;;;;;5019045;28;20050;-87
2023/01/30 07:32:18;;;;;;;2.05;1.95;;;;;;;;;;5019177;28;20045;-87
2023/01/30 07:34:46;;;;;;;1.75;1.65;;;;;;;;;;5036160;28;20041;-86
2023/01/30 07:37:13;;;;;;;1.70;1.60;;;;;;;;;;5019768;28;20045;-87
2023/01/30 07:39:40;;;;;;;3.22;1.80;;;;;;;;;;5022320;28;20056;-89
2023/01/30 07:42:08;;;;;;;2.03;1.92;;;;;;;;;;5018484;28;20482;-87
2023/01/30 07:44:35;;;;;;;1.70;1.60;;;;;;;;;;5036010;28;20080;-87
2023/01/30 07:47:02;;;;;;;1.70;1.60;;;;;;;;;;5018516;28;20060;-90
2023/01/30 07:49:29;;;;;;;2.05;1.95;;;;;;;;;;5018524;28;20111;-87
2023/01/30 07:51:56;;;;;;;2.10;1.92;;;;;;;;;;5018095;28;20042;-87
2023/01/30 07:54:25;;;;;;;2.47;1.85;;;;;;;;;;5018250;28;20049;-89
2023/01/30 07:56:52;;;;;;;2.10;2.00;;;;;;;;;;5018219;28;20072;-87
2023/01/30 07:59:20;;;;;;;2.58;2.38;;;;;;;;;;5018433;28;20100;-87
2023/01/30 08:01:47;;;;;;;4.47;2.60;;;;;;;;;;5018334;28;20063;-87
2023/01/30 08:04:14;;;;;;;2.65;2.45;;;;;;;;;;5018651;28;20076;-87
2023/01/30 08:06:41;;;;;;;2.40;2.25;;;;;;;;;;5030919;28;20251;-87
2023/01/30 08:09:09;;;;;;;2.15;2.05;;;;;;;;;;5040239;28;20056;-87
2023/01/30 08:11:36;;;;;;;2.22;2.03;;;;;;;;;;5034756;28;20041;-87
2023/01/30 08:14:03;;;;;;;1.88;1.77;;;;;;;;;;5017871;28;20049;-87
2023/01/30 08:16:31;;;;;;;2.35;2.10;;;;;;;;;;5018312;28;20450;-86
2023/01/30 08:18:58;;;;;;;1.90;1.80;;;;;;;;;;5018140;28;20057;-87
2023/01/30 08:21:25;;;;;;;1.70;1.60;;;;;;;;;;5018260;28;20056;-87
2023/01/30 08:23:53;;;;;;;3.90;1.52;;;;;;;;;;5018117;28;20478;-88
2023/01/30 08:26:20;;;;;;;1.50;1.40;;;;;;;;;;5035008;28;20045;-88
2023/01/30 08:28:47;;;;;;;1.38;1.33;;;;;;;;;;5035533;28;20049;-90
2023/01/30 08:31:15;;;;;;;1.40;1.30;;;;;;;;;;5017704;28;20049;-87
2023/01/30 08:33:43;;;;;;;1.30;1.20;;;;;;;;;;5035082;28;20084;-87
2023/01/30 08:36:10;;;;;;;2.40;1.42;;;;;;;;;;5034799;28;20056;-86
2023/01/30 08:38:37;;;;;;;1.52;1.42;;;;;;;;;;5034936;28;20048;-87
2023/01/30 08:41:08;;;;;;;3.45;3.13;;;;;;;;;;5034921;28;20054;-87
2023/01/30 08:43:35;;;;;;;1.20;1.20;;;;;;;;;;5034895;28;20076;-87
2023/01/30 08:46:03;;;;;;;1.45;1.38;;;;;;;;;;5034886;28;20056;-87
2023/01/30 08:48:30;;;;;;;1.85;1.75;;;;;;;;;;5033276;28;20068;-87
2023/01/30 08:51:14;;;;;;;12.60;2.15;;;;;;;;;;5039221;28;20053;-87
2023/01/30 08:53:42;;;;;;;7.03;2.00;;;;;;;;;;5035961;28;20057;-87
2023/01/30 08:56:09;;;;;;;2.15;1.77;;;;;;;;;;5036707;28;20063;-87
2023/01/30 08:58:36;;;;;;;1.10;1.10;;;;;;;;;;5054564;28;20087;-88
2023/01/30 09:01:07;;;;;;;1.13;1.13;;;;;;;;;;5036830;28;20068;-87
2023/01/30 09:03:34;;;;;;;1.65;1.48;;;;;;;;;;5036957;28;20444;-87
2023/01/30 09:06:01;;;;;;;25.05;2.72;;;;;;;;;;5036590;28;20049;-87
2023/01/30 09:08:28;;;;;;;9.82;2.03;;;;;;;;;;5036935;28;20060;-87
2023/01/30 09:11:03;;;;;;;1.67;1.58;;;;;;;;;;5036894;28;20106;-87
2023/01/30 09:13:31;;;;;;;9.82;1.33;;;;;;;;;;5037047;28;20072;-87
2023/01/30 09:15:58;;;;;;;5.38;1.50;;;;;;;;;;5036167;28;20490;-87
2023/01/30 09:18:25;;;;;;;9.02;1.58;;;;;;;;;;5036707;28;20052;-88
2023/01/30 09:21:01;;;;;;;7.53;1.35;;;;;;;;;;5052833;28;20091;-86
2023/01/30 09:23:28;;;;;;;1.30;1.20;;;;;;;;;;5023767;28;20057;-87
2023/01/30 09:25:55;;;;;;;1.98;1.85;;;;;;;;;;5025367;28;20375;-87
2023/01/30 09:28:23;;;;;;;1.45;1.30;;;;;;;;;;5027865;28;20044;-87
2023/01/30 09:30:50;;;;;;;2.05;1.95;;;;;;;;;;5030592;28;20114;-89
2023/01/30 09:33:19;;;;;;;3.53;3.22;;;;;;;;;;5036519;28;20404;-87
2023/01/30 09:35:47;;;;;;;1.90;1.70;;;;;;;;;;5036224;28;20068;-87
2023/01/30 09:38:14;;;;;;;8.63;2.33;;;;;;;;;;5036671;28;20051;-88
2023/01/30 09:41:00;;;;;;;2.20;2.10;;;;;;;;;;5036563;28;20059;-87
2023/01/30 09:43:45;;;;;;;2.17;1.80;;;;;;;;;;5036101;28;20053;-87
2023/01/30 09:46:18;;;;;;;6.22;2.10;;;;;;;;;;5035987;28;20053;-87
2023/01/30 09:48:54;;;;;;;2.63;2.03;;;;;;;;;;5036406;28;20140;-88
2023/01/30 09:51:27;;;;;;;3.60;2.40;;;;;;;;;;5036229;28;20049;-87
2023/01/30 09:54:10;;;;;;;5.65;2.65;;;;;;;;;;5032576;28;20057;-88
2023/01/30 09:56:37;;;;;;;2.63;2.53;;;;;;;;;;5032473;28;20049;-87
2023/01/30 09:59:05;;;;;;;2.03;1.92;;;;;;;;;;5032775;28;20421;-86
2023/01/30 10:01:53;;;;;;;2.20;2.10;;;;;;;;;;5032229;28;20088;-87
2023/01/30 10:04:33;;;;;;;2.05;1.95;;;;;;;;;;5033283;28;20155;-88
2023/01/30 10:07:06;;;;;;;2.00;1.90;;;;;;;;;;5032753;28;20045;-89
2023/01/30 10:09:57;;;;;;;4.72;1.98;;;;;;;;;;5032794;28;20057;-87
2023/01/30 10:12:42;;;;;;;2.45;2.17;;;;;;;;;;5032441;28;20055;-88
2023/01/30 10:15:21;;;;;;;2.15;2.05;;;;;;;;;;5032642;28;20147;-89
2023/01/30 10:17:49;;;;;;;6.15;2.40;;;;;;;;;;5032546;28;20055;-87
2023/01/30 10:20:22;;;;;;;2.22;2.03;;;;;;;;;;5031634;28;20492;-87
2023/01/30 10:22:56;;;;;;;2.05;1.95;;;;;;;;;;5032320;28;20049;-88
2023/01/30 10:25:35;;;;;;;2.95;2.72;;;;;;;;;;5033217;28;20078;-89
2023/01/30 10:28:23;;;;;;;2.30;2.13;;;;;;;;;;5032436;28;20054;-88
2023/01/30 10:30:52;;;;;;;2.85;2.65;;;;;;;;;;5033272;28;20046;-88
2023/01/30 10:33:22;;;;;;;1.50;1.40;;;;;;;;;;5036804;28;20073;-87
2023/01/30 10:36:07;;;;;;;2.35;1.30;;;;;;;;;;5043349;28;20050;-88
2023/01/30 10:38:44;;;;;;;3.30;1.45;;;;;;;;;;5031879;28;20056;-88
2023/01/30 10:41:23;;;;;;;2.10;1.05;;;;;;;;;;5032196;28;20342;-87
2023/01/30 10:43:59;;;;;;;1.40;1.13;;;;;;;;;;5033163;28;20600;-88
2023/01/30 10:46:26;;;;;;;1.10;1.10;;;;;;;;;;5033143;28;20060;-88
2023/01/30 10:49:20;;;;;;;1.00;1.00;;;;;;;;;;5033393;28;20405;-88
2023/01/30 10:51:50;;;;;;;1.92;0.88;;;;;;;;;;5006230;28;20045;-87
2023/01/30 10:54:21;;;;;;;2.95;1.23;;;;;;;;;;5041744;28;20056;-87
2023/01/30 10:56:48;;;;;;;3.72;1.40;;;;;;;;;;5035236;28;20075;-88
2023/01/30 10:59:22;;;;;;;2.72;1.33;;;;;;;;;;5052648;28;20047;-89
2023/01/30 11:01:49;;;;;;;;;;;;;;;;;;5035850;28;20087;-89
2023/01/30 11:04:35;;;;;;;2.30;2.10;;;;;;;;;;5035577;28;19925;-88
2023/01/30 11:07:02;;;;;;;23.50;2.40;;;;;;;;;;5034953;28;20060;-89
2023/01/30 11:09:43;;;;;;;2.05;1.95;;;;;;;;;;5035481;28;20056;-87
2023/01/30 11:12:10;;;;;;;2.40;2.20;;;;;;;;;;5035705;28;20072;-89
2023/01/30 11:14:55;;;;;;;2.25;2.13;;;;;;;;;;5035161;28;20152;-90
2023/01/30 11:17:28;;;;;;;3.33;2.30;;;;;;;;;;5037446;28;20060;-89
2023/01/30 11:19:56;;;;;;;2.17;1.98;;;;;;;;;;5039020;28;20503;-90
2023/01/30 11:22:27;;;;;;;8.40;2.58;;;;;;;;;;5039107;28;20110;-90
2023/01/30 11:25:02;;;;;;;3.40;3.00;;;;;;;;;;5039071;28;20049;-89
2023/01/30 11:27:31;;;;;;;3.05;2.42;;;;;;;;;;5038974;28;20051;-89
2023/01/30 11:30:18;;;;;;;2.47;2.10;;;;;;;;;;5038637;28;20049;-89
2023/01/30 11:32:49;;;;;;;4.78;2.45;;;;;;;;;;5038394;28;20045;-89
2023/01/30 11:35:22;;;;;;;1.90;1.80;;;;;;;;;;5056020;28;20110;-88
2023/01/30 11:37:52;;;;;;;3.10;2.30;;;;;;;;;;5055902;28;20056;-89
2023/01/30 11:40:19;;;;;;;7.68;4.13;;;;;;;;;;5037904;28;20083;-90
2023/01/30 11:42:49;;;;;;;2.28;2.13;;;;;;;;;;5056137;28;20508;-89
2023/01/30 11:45:17;;;;;;;2.30;2.10;;;;;;;;;;5038434;28;20404;-89
2023/01/30 11:47:47;;;;;;;2.20;2.00;;;;;;;;;;5058542;28;20053;-89
2023/01/30 11:50:31;;;;;;;1.58;1.50;;;;;;;;;;5040553;28;20095;-88
2023/01/30 11:53:07;;;;;;;1.67;1.58;;;;;;;;;;5039284;28;20482;-89
2023/01/30 11:55:36;;;;;;;5.88;1.80;;;;;;;;;;5038243;28;20464;-90
2023/01/30 11:58:07;;;;;;;1.40;1.30;;;;;;;;;;5038466;28;20060;-89
2023/01/30 12:00:42;;;;;;;1.80;1.65;;;;;;;;;;5038628;28;20056;-89
2023/01/30 12:03:10;;;;;;;2.22;1.70;;;;;;;;;;5038450;28;20061;-90
2023/01/30 12:05:41;;;;;;;1.55;1.45;;;;;;;;;;5038656;28;20056;-89
2023/01/30 12:08:20;;;;;;;4.18;1.40;;;;;;;;;;5038483;28;20063;-90
2023/01/30 12:11:23;;;;;;;1.23;1.13;;;;;;;;;;5055414;28;20478;-89
2023/01/30 12:13:51;;;;;;;1.35;1.20;;;;;;;;;;5038265;28;20087;-90
2023/01/30 12:16:21;;;;;;;1.60;1.50;;;;;;;;;;5038033;28;20505;-90
2023/01/30 12:19:04;;;;;;;1.33;1.13;;;;;;;;;;5055913;28;20049;-90
2023/01/30 12:21:35;;;;;;;2.25;1.33;;;;;;;;;;5038209;28;20060;-90
2023/01/30 12:24:09;;;;;;;4.43;1.38;;;;;;;;;;5037996;28;20060;-90
2023/01/30 12:26:58;;;;;;;2.15;1.10;;;;;;;;;;5038215;28;20078;-90
2023/01/30 12:29:31;;;;;;;3.33;1.30;;;;;;;;;;5055615;28;20127;-88
2023/01/30 12:32:07;;;;;;;5.85;1.38;;;;;;;;;;5037740;28;20041;-90
2023/01/30 12:34:37;;;;;;;1.67;1.10;;;;;;;;;;5038343;28;20084;-90
2023/01/30 12:37:22;;;;;;;1.13;1.13;;;;;;;;;;5037272;28;20052;-90
2023/01/30 12:39:49;;;;;;;1.40;1.30;;;;;;;;;;5037533;28;20045;-91
2023/01/30 12:42:25;;;;;;;1.15;0.90;;;;;;;;;;5037251;28;20500;-89
2023/01/30 12:45:11;;;;;;;0.80;0.80;;;;;;;;;;5037458;28;20061;-89
2023/01/30 12:48:00;;;;;;;6.35;0.95;;;;;;;;;;5054783;28;20049;-89
2023/01/30 12:50:33;;;;;;;1.10;0.90;;;;;;;;;;5037211;28;20060;-89
2023/01/30 12:53:19;;;;;;;2.83;1.13;;;;;;;;;;5054309;28;20055;-89
2023/01/30 12:56:05;;;;;;;0.52;0.52;;;;;;;;;;5036992;28;20061;-89
2023/01/30 12:58:38;;;;;;;1.13;0.90;;;;;;;;;;5037203;28;20489;-89
2023/01/30 13:01:32;;;;;;;5.38;1.33;;;;;;;;;;5043107;28;20121;-89
2023/01/30 13:03:59;;;;;;;;;;;;;;;;;;5003960;28;20099;-88
2023/01/30 13:06:45;;;;;;;2.25;0.88;;;;;;;;;;5037005;28;19920;-88
2023/01/30 13:09:36;;;;;;;2.55;1.10;;;;;;;;;;5037247;28;20132;-89
2023/01/30 13:12:11;;;;;;;4.68;1.33;;;;;;;;;;5037019;28;20151;-89
2023/01/30 13:14:48;;;;;;;2.50;1.10;;;;;;;;;;5037202;28;20049;-88
2023/01/30 13:17:26;;;;;;;2.40;0.98;;;;;;;;;;5055238;28;20053;-88
2023/01/30 13:20:07;;;;;;;4.82;1.08;;;;;;;;;;5036503;28;20060;-88
2023/01/30 13:22:45;;;;;;;5.35;1.48;;;;;;;;;;5036922;28;20049;-88
2023/01/30 13:25:36;;;;;;;3.33;1.10;;;;;;;;;;5037259;28;20481;-89
2023/01/30 13:28:23;;;;;;;2.05;1.20;;;;;;;;;;5036976;28;20049;-90
2023/01/30 13:30:53;;;;;;;5.53;1.90;;;;;;;;;;5037513;28;20083;-90
2023/01/30 13:33:30;;;;;;;7.93;2.00;;;;;;;;;;5036467;28;20056;-89
2023/01/30 13:36:03;;;;;;;42.17;3.85;;;;;;;;;;5036576;28;20045;-88
2023/01/30 13:38:32;;;;;;;8.18;2.45;;;;;;;;;;5036497;28;20496;-89
2023/01/30 13:40:59;;;;;;;7.50;2.42;;;;;;;;;;5036625;28;20059;-88
2023/01/30 13:43:30;;;;;;;2.60;1.42;;;;;;;;;;5036661;28;20045;-88
2023/01/30 13:46:00;;;;;;;2.83;1.60;;;;;;;;;;5036694;28;20061;-87
2023/01/30 13:48:39;;;;;;;8.85;2.33;;;;;;;;;;5036912;28;20064;-88
2023/01/30 13:51:19;;;;;;;2.60;1.30;;;;;;;;;;5036227;28;20045;-89
2023/01/30 13:53:50;;;;;;;6.68;1.40;;;;;;;;;;5036465;28;20087;-88
2023/01/30 13:56:32;;;;;;;4.95;1.23;;;;;;;;;;5039032;28;20457;-89
2023/01/30 13:59:08;;;;;;;4.40;1.30;;;;;;;;;;5040160;28;20554;-88
2023/01/30 14:01:54;;;;;;;7.63;1.30;;;;;;;;;;5035880;28;20132;-88
2023/01/30 14:04:40;;;;;;;6.72;1.27;;;;;;;;;;5053911;28;20044;-87
2023/01/30 14:07:21;;;;;;;4.20;1.48;;;;;;;;;;5035952;28;20060;-89
2023/01/30 14:10:03;;;;;;;4.63;1.10;;;;;;;;;;5035977;28;20128;-89
2023/01/30 14:12:50;;;;;;;8.90;1.50;;;;;;;;;;5053518;28;20056;-89
2023/01/30 14:15:18;;;;;;;3.17;1.40;;;;;;;;;;5045224;28;20025;-87
2023/01/30 14:18:01;;;;;;;5.80;1.27;;;;;;;;;;5057203;28;20045;-88
2023/01/30 14:20:29;;;;;;;6.75;1.30;;;;;;;;;;5036089;28;20057;-88
2023/01/30 14:23:02;;;;;;;3.83;1.35;;;;;;;;;;5035780;28;20045;-88
2023/01/30 14:25:29;;;;;;;2.92;1.33;;;;;;;;;;5035802;28;20059;-87
2023/01/30 14:28:00;;;;;;;4.57;1.60;;;;;;;;;;5036204;28;20053;-87
2023/01/30 14:30:30;;;;;;;4.75;1.50;;;;;;;;;;5035935;28;20048;-88
2023/01/30 14:32:59;;;;;;;5.65;1.60;;;;;;;;;;5035191;28;20048;-87
2023/01/30 14:35:30;;;;;;;7.80;1.83;;;;;;;;;;5035552;28;20049;-88
2023/01/30 14:38:08;;;;;;;5.65;2.00;;;;;;;;;;5035814;28;20064;-87
2023/01/30 14:40:37;;;;;;;4.38;1.60;;;;;;;;;;5035744;28;20452;-87
2023/01/30 14:43:13;;;;;;;9.23;1.52;;;;;;;;;;5053050;28;20072;-89
2023/01/30 14:45:51;;;;;;;7.82;1.70;;;;;;;;;;5035221;28;20438;-88
2023/01/30 14:48:27;;;;;;;5.80;1.40;;;;;;;;;;5035756;28;20049;-87
2023/01/30 14:51:13;;;;;;;4.75;1.35;;;;;;;;;;5035904;28;20049;-87
2023/01/30 14:53:55;;;;;;;10.43;2.00;;;;;;;;;;5057225;28;20487;-88
2023/01/30 14:56:37;;;;;;;3.03;1.15;;;;;;;;;;5056699;28;20548;-88
2023/01/30 14:59:07;;;;;;;6.32;1.67;;;;;;;;;;5056810;28;20047;-88
2023/01/30 15:01:53;;;;;;;4.72;1.52;;;;;;;;;;5056905;28;20064;-87
2023/01/30 15:04:20;;;;;;;5.13;1.60;;;;;;;;;;5039520;28;20425;-88